LFBALFLC

Guest
Details From LFBA - Agen la Garenne
To LFLC - Clermont-Ferrand_Auvergne
Flight Number -
Tags generated
Created
Modified
Stats Distance 146 nm / 271 km
Max Altitude 17,700 ft / 5,395 m
Waypoints 3
Social Downloads 1
Likes 0
Share VATSIM

Download

Looking for another format? Having issues loading an existing format? Contact us
Advertisement - Login to hide

Notes

Basic altitude profile: - Ascent Rate: 2100ft/min - Ascent Speed: 250kts - Cruise Altitude: 18000ft - Cruise Speed: 370kts - Descent Rate: 1500ft/min - Descent Speed: 250kts Options: - Use NATs: yes - Use PACOTS: yes - Use low airways: yes - Use high airways: yes

Route

LFBA RATRA LFLC

ID Type Via Altitude Latitude Longitude Leg Dist Tot Dist Heading (true) Name
O LFBA APT - 0 ft / 0 m 44.17403˚ 0.59296˚ - 0 nm - Agen la Garenne
RATRA FIX - 17,700 ft / 5,395 m 44.78028˚ 1.47750˚ 52 nm 52 nm 46° / 46° -
O LFLC APT - 0 ft / 0 m 45.78671˚ 3.16997˚ 93 nm 146 nm 49° / 50° Clermont-Ferrand_Auvergne

Altitude Profile

Advertisement - Login to hide

LFBA

Details ICAO LFBA (AGF)
Name Agen la Garenne
Region France
Timezone Europe/Paris (UTC+1.0)
Stats Elevation 204 ft / 62 m (AMSL)
Location 44.174025° 0.592961°
Runways 1
Magnetic Variation 0.340° E

METAR

LFBA 110230Z AUTO 20005KT 140V280 9999 -RA NSC 09/07 Q0983

Decode

TAF

Not found

Departure Runways

ID Width Length Bearing (true) Bearing (mag) Surface Threshold Offset Overrun Length
11 98 ft / 30 m 7,088 ft / 2,161 m 112.24° 111.90° Asphalt 541 ft / 165 m 0 ft / 0 m
29 98 ft / 30 m 7,088 ft / 2,161 m 292.26° 291.92° Asphalt 1,312 ft / 400 m 0 ft / 0 m

LFLC

Details ICAO LFLC (CFE)
Name Clermont-Ferrand_Auvergne
Region France
Timezone Europe/Paris (UTC+1.0)
Stats Elevation 1,089 ft / 332 m (AMSL)
Location 45.786712° 3.169967°
Runways 1
Magnetic Variation 0.978° E

METAR

LFLC 110230Z AUTO 17018KT CAVOK 11/06 Q0980 TEMPO RA BECMG 18015G30KT

Decode

TAF

TAF LFLC 110200Z 1103/1203 18015G30KT 9999 BKN035 BKN050 TEMPO 1103/1109 5000 RA BECMG 1108/1110 SCT040 PROB40 TEMPO 1112/1203 SHRA SCT020TCU BKN025 BECMG 1116/1118 22008KT

Decode

Destination Runways

ID Width Length Bearing (true) Bearing (mag) Surface Threshold Offset Overrun Length
08 148 ft / 45 m 9,878 ft / 3,011 m 81.95° 80.97° Asphalt 0 ft / 0 m 0 ft / 0 m
26 148 ft / 45 m 9,878 ft / 3,011 m 261.98° 261.00° Asphalt 476 ft / 145 m 0 ft / 0 m

Approach Navaids

Runway Type Ident Frequency Range Bearing (true) Bearing (mag) Slope Elevation
26 Localiser CF 111.10 MHz 27 nm / 50 km 261.98° 261.00° - 1,089 ft / 332 m (AMSL)
26 Glidescope CF 111.10 MHz 27 nm / 50 km 261.98° 261.00° 3.00° 1,089 ft / 332 m (AMSL)
26 DME CF 111.10 MHz 27 nm / 50 km - - - 1,089 ft / 332 m (AMSL)